createdAt,value
2018-07-06T00:02:21.993Z,8.67
2018-07-06T00:05:00.868Z,7.17
2018-07-06T00:07:39.973Z,7.50
2018-07-06T00:10:18.934Z,7.07
2018-07-06T00:12:57.963Z,6.60
2018-07-06T00:15:37.121Z,7.10
2018-07-06T00:18:10.407Z,7.07
2018-07-06T00:20:49.436Z,7.33
2018-07-06T00:23:28.419Z,7.80
2018-07-06T00:26:07.490Z,6.77
2018-07-06T00:28:46.785Z,7.10
2018-07-06T00:31:25.759Z,6.77
2018-07-06T00:34:04.798Z,6.97
2018-07-06T00:36:43.826Z,6.90
2018-07-06T00:39:22.973Z,7.53
2018-07-06T00:41:56.304Z,7.80
2018-07-06T00:44:35.311Z,7.33
2018-07-06T00:47:14.308Z,8.00
2018-07-06T00:49:53.500Z,8.00
2018-07-06T00:52:32.380Z,8.47
2018-07-06T00:55:11.137Z,8.00
2018-07-06T00:57:50.845Z,7.43
2018-07-06T01:00:29.763Z,7.77
2018-07-06T01:03:08.965Z,8.70
2018-07-06T01:05:48.260Z,7.50
2018-07-06T01:08:28.318Z,7.53
2018-07-06T01:11:07.838Z,7.13
2018-07-06T01:13:46.868Z,6.70
2018-07-06T01:16:25.917Z,7.00
2018-07-06T01:19:05.035Z,8.63
2018-07-06T01:21:44.345Z,9.30
2018-07-06T01:24:23.648Z,11.90
2018-07-06T01:27:02.840Z,11.40
2018-07-06T01:29:41.968Z,11.60
2018-07-06T01:32:21.433Z,12.83
2018-07-06T01:35:00.584Z,11.43
2018-07-06T01:37:39.662Z,11.53
2018-07-06T01:40:18.895Z,12.80
2018-07-06T01:42:58.057Z,10.30
2018-07-06T01:45:37.121Z,9.73
2018-07-06T01:48:16.085Z,9.80
2018-07-06T01:50:55.067Z,10.13
2018-07-06T01:53:34.110Z,10.73
2018-07-06T01:56:13.154Z,11.40
2018-07-06T01:58:52.057Z,10.03
2018-07-06T02:01:31.046Z,11.40
2018-07-06T02:04:10.185Z,11.07
2018-07-06T02:06:49.263Z,10.33
2018-07-06T02:09:28.394Z,11.00
2018-07-06T02:12:07.912Z,10.00
2018-07-06T02:14:46.928Z,10.80
2018-07-06T02:17:26.006Z,9.17
2018-07-06T02:20:05.228Z,9.20
2018-07-06T02:22:44.367Z,9.70
2018-07-06T02:25:23.360Z,9.50
2018-07-06T02:28:02.236Z,9.10
2018-07-06T02:30:41.228Z,8.30
2018-07-06T02:33:20.318Z,8.40
2018-07-06T02:35:59.202Z,7.90
2018-07-06T02:38:38.291Z,7.90
2018-07-06T02:41:17.366Z,7.93
2018-07-06T02:43:56.480Z,7.67
2018-07-06T02:46:35.550Z,7.90
2018-07-06T02:49:14.622Z,8.70
2018-07-06T02:51:54.269Z,8.80
2018-07-06T02:54:33.255Z,8.00
2018-07-06T02:57:12.245Z,7.80
2018-07-06T02:59:51.424Z,7.90
2018-07-06T03:02:30.598Z,7.60
2018-07-06T03:05:09.681Z,8.10
2018-07-06T03:07:48.887Z,7.50
2018-07-06T03:10:21.997Z,7.30
2018-07-06T03:13:01.141Z,7.00
2018-07-06T03:15:40.085Z,6.90
2018-07-06T03:18:19.044Z,6.30
2018-07-06T03:20:58.175Z,7.00
2018-07-06T03:23:37.109Z,7.20
2018-07-06T03:26:16.152Z,7.33
2018-07-06T03:28:55.229Z,6.97
2018-07-06T03:31:34.246Z,6.80
2018-07-06T03:34:13.338Z,6.60
2018-07-06T03:36:52.540Z,6.50
2018-07-06T03:39:31.474Z,6.27
2018-07-06T03:42:04.859Z,6.90
2018-07-06T03:44:43.866Z,6.67
2018-07-06T03:47:22.950Z,7.20
2018-07-06T03:50:02.042Z,6.23
2018-07-06T03:52:41.142Z,6.40
2018-07-06T03:55:20.863Z,6.20
2018-07-06T03:58:01.304Z,6.07
2018-07-06T04:00:40.323Z,6.47
2018-07-06T04:03:19.667Z,6.30
2018-07-06T04:05:58.746Z,6.97
2018-07-06T04:08:37.926Z,6.07
2018-07-06T04:11:17.012Z,6.37
2018-07-06T04:13:56.458Z,7.43
2018-07-06T04:16:35.678Z,7.17
2018-07-06T04:19:14.747Z,6.40
2018-07-06T04:21:54.417Z,6.50
2018-07-06T04:24:33.490Z,6.40
2018-07-06T04:27:13.185Z,6.33
2018-07-06T04:29:52.360Z,6.50
2018-07-06T04:32:32.276Z,5.87
2018-07-06T04:35:11.784Z,6.67
2018-07-06T04:37:50.749Z,5.50
2018-07-06T04:40:29.778Z,8.13
2018-07-06T04:43:08.993Z,5.60
2018-07-06T04:45:47.965Z,7.10
2018-07-06T04:48:27.140Z,5.30
2018-07-06T04:51:00.279Z,5.30
2018-07-06T04:53:39.493Z,5.60
2018-07-06T04:56:18.481Z,5.53
2018-07-06T04:58:57.559Z,5.13
2018-07-06T05:01:36.548Z,5.23
2018-07-06T05:04:15.718Z,6.57
2018-07-06T05:06:54.902Z,4.60
2018-07-06T05:09:34.008Z,4.90
2018-07-06T05:12:13.496Z,5.83
2018-07-06T05:14:52.583Z,4.83
2018-07-06T05:17:31.738Z,5.03
2018-07-06T05:20:10.887Z,5.10
2018-07-06T05:22:49.814Z,4.50
2018-07-06T05:25:29.252Z,4.70
2018-07-06T05:28:08.224Z,4.17
2018-07-06T05:30:47.226Z,3.07
2018-07-06T05:33:26.329Z,3.83
2018-07-06T05:36:05.233Z,4.00
2018-07-06T05:38:44.431Z,4.03
2018-07-06T05:41:23.767Z,3.40
2018-07-06T05:44:02.716Z,4.27
2018-07-06T05:46:41.749Z,4.03
2018-07-06T05:49:20.858Z,3.40
2018-07-06T05:51:59.951Z,2.87
2018-07-06T05:54:39.127Z,3.40
2018-07-06T05:57:18.331Z,3.13
2018-07-06T05:59:57.509Z,3.87
2018-07-06T06:02:36.559Z,3.70
2018-07-06T06:05:15.583Z,4.10
2018-07-06T06:07:42.116Z,3.87
2018-07-06T06:10:10.151Z,3.10
2018-07-06T06:12:44.401Z,4.20
2018-07-06T06:15:12.014Z,3.80
2018-07-06T06:17:39.573Z,3.90
2018-07-06T06:20:11.852Z,3.77
2018-07-06T06:22:39.436Z,3.73
2018-07-06T06:25:07.106Z,3.83
2018-07-06T06:27:34.703Z,4.00
2018-07-06T06:30:02.356Z,3.80
2018-07-06T06:32:30.039Z,3.67
2018-07-06T06:34:57.762Z,4.00
2018-07-06T06:37:25.305Z,9.03
2018-07-06T06:39:52.937Z,4.60
2018-07-06T06:42:20.648Z,3.60
2018-07-06T06:44:48.348Z,3.50
2018-07-06T06:47:15.873Z,4.00
2018-07-06T06:49:43.592Z,3.40
2018-07-06T06:52:11.243Z,3.30
2018-07-06T06:54:38.852Z,3.07
2018-07-06T06:57:06.544Z,3.63
2018-07-06T06:59:34.374Z,3.33
2018-07-06T07:02:02.125Z,3.60
2018-07-06T07:04:29.935Z,3.27
2018-07-06T07:06:57.504Z,3.57
2018-07-06T07:09:25.065Z,3.27
2018-07-06T07:11:52.696Z,3.20
2018-07-06T07:14:20.324Z,3.10
2018-07-06T07:16:47.973Z,2.17
2018-07-06T07:19:15.605Z,2.37
2018-07-06T07:21:43.249Z,2.43
2018-07-06T07:24:11.029Z,1.90
2018-07-06T07:26:38.717Z,2.80
2018-07-06T07:29:06.425Z,1.70
2018-07-06T07:31:34.044Z,1.67
2018-07-06T07:34:01.693Z,1.27
2018-07-06T07:36:29.371Z,1.87
2018-07-06T07:38:57.047Z,3.20
2018-07-06T07:41:24.669Z,1.35
2018-07-06T07:43:52.524Z,1.30
2018-07-06T07:46:20.118Z,1.10
2018-07-06T07:48:47.682Z,1.40
2018-07-06T07:51:57.490Z,1.60
2018-07-06T07:54:31.335Z,1.50
2018-07-06T07:57:00.087Z,1.30
2018-07-06T07:59:29.461Z,1.20
2018-07-06T08:01:57.831Z,1.50
2018-07-06T08:04:25.534Z,2.77
2018-07-06T08:06:53.664Z,1.25
2018-07-06T08:09:21.729Z,1.32
2018-07-06T08:11:51.181Z,1.00
2018-07-06T08:14:19.497Z,1.20
2018-07-06T08:16:47.540Z,1.45
2018-07-06T08:19:15.196Z,1.20
2018-07-06T08:21:42.792Z,1.10
2018-07-06T08:24:10.534Z,1.20
2018-07-06T08:26:38.084Z,1.17
2018-07-06T08:29:05.724Z,1.10
2018-07-06T08:31:33.852Z,1.00
2018-07-06T08:34:13.000Z,0.95
2018-07-06T08:37:54.382Z,1.00
2018-07-06T08:40:23.126Z,1.65
2018-07-06T08:42:55.032Z,1.57
2018-07-06T08:45:22.953Z,1.27
2018-07-06T08:47:50.711Z,0.88
2018-07-06T08:50:18.426Z,1.15
2018-07-06T08:52:47.144Z,0.93
2018-07-06T08:55:14.908Z,0.90
2018-07-06T08:57:43.608Z,1.10
2018-07-06T09:00:11.598Z,1.10
2018-07-06T09:02:39.224Z,1.80
2018-07-06T09:05:07.440Z,1.70
2018-07-06T09:07:35.042Z,1.90
2018-07-06T09:10:03.056Z,1.53
2018-07-06T09:12:30.728Z,1.73
2018-07-06T09:14:59.000Z,1.50
2018-07-06T09:17:26.631Z,1.70
2018-07-06T09:19:55.319Z,1.93
2018-07-06T09:22:22.971Z,2.60
2018-07-06T09:24:52.093Z,1.93
2018-07-06T09:27:19.701Z,2.07
2018-07-06T09:29:47.354Z,1.80
2018-07-06T09:32:14.989Z,1.80
2018-07-06T09:34:42.757Z,2.40
2018-07-06T09:37:10.322Z,2.30
2018-07-06T09:39:39.025Z,3.07
2018-07-06T09:42:06.909Z,1.97
2018-07-06T09:44:34.960Z,2.50
2018-07-06T09:47:02.635Z,2.40
2018-07-06T09:49:30.215Z,2.30
2018-07-06T09:51:57.805Z,2.53
2018-07-06T09:54:25.382Z,2.57
2018-07-06T09:56:52.998Z,2.97
2018-07-06T09:59:20.627Z,2.10
2018-07-06T10:01:48.233Z,1.80
2018-07-06T10:04:16.030Z,1.77
2018-07-06T10:06:43.689Z,2.00
2018-07-06T10:09:11.662Z,2.40
2018-07-06T10:11:39.262Z,3.33
2018-07-06T10:14:06.888Z,2.13
2018-07-06T10:16:34.486Z,2.47
2018-07-06T10:19:02.235Z,1.83
2018-07-06T10:21:29.829Z,2.60
2018-07-06T10:23:57.417Z,4.80
2018-07-06T10:26:25.202Z,2.40
2018-07-06T10:29:08.214Z,2.27
2018-07-06T10:31:54.146Z,2.40
2018-07-06T10:34:21.791Z,3.37
2018-07-06T10:36:49.394Z,2.47
2018-07-06T10:39:17.502Z,1.97
2018-07-06T10:41:45.184Z,2.70
2018-07-06T10:44:12.786Z,2.43
2018-07-06T10:46:40.503Z,2.60
2018-07-06T10:49:08.089Z,2.33
2018-07-06T10:51:35.675Z,1.80
2018-07-06T10:54:03.325Z,2.07
2018-07-06T10:56:30.905Z,2.20
2018-07-06T10:58:58.478Z,2.10
2018-07-06T11:01:26.421Z,2.43
2018-07-06T11:03:54.029Z,1.80
2018-07-06T11:06:21.666Z,1.83
2018-07-06T11:08:49.253Z,2.03
2018-07-06T11:11:16.988Z,2.20
2018-07-06T11:13:44.563Z,2.63
2018-07-06T11:16:12.149Z,2.27
2018-07-06T11:18:39.761Z,2.10
2018-07-06T11:21:07.347Z,2.43
2018-07-06T11:23:34.962Z,2.20
2018-07-06T11:26:02.568Z,1.90
2018-07-06T11:28:30.145Z,2.00
2018-07-06T11:30:57.884Z,1.97
2018-07-06T11:33:25.704Z,2.07
2018-07-06T11:35:53.248Z,2.27
2018-07-06T11:38:20.837Z,2.73
2018-07-06T11:40:48.385Z,2.27
2018-07-06T11:43:16.036Z,2.27
2018-07-06T11:45:43.766Z,2.33
2018-07-06T11:48:12.032Z,1.87
2018-07-06T11:50:40.818Z,2.20
2018-07-06T11:53:08.686Z,2.33
2018-07-06T11:55:36.306Z,2.37
2018-07-06T11:58:04.804Z,1.90
2018-07-06T12:00:33.044Z,2.33
2018-07-06T12:03:00.734Z,2.00
2018-07-06T12:05:28.306Z,2.50
2018-07-06T12:07:55.949Z,2.13
2018-07-06T12:10:23.601Z,2.47
2018-07-06T12:12:51.211Z,2.70
2018-07-06T12:15:18.878Z,2.60
2018-07-06T12:17:46.534Z,3.40
2018-07-06T12:20:14.086Z,3.13
2018-07-06T12:22:41.662Z,3.23
2018-07-06T12:25:09.274Z,2.67
2018-07-06T12:27:36.838Z,2.63
2018-07-06T12:30:04.716Z,2.80
2018-07-06T12:32:32.427Z,2.30
2018-07-06T12:35:00.023Z,2.60
2018-07-06T12:37:27.694Z,3.30
2018-07-06T12:39:55.414Z,2.33
2018-07-06T12:42:23.029Z,2.30
2018-07-06T12:44:50.653Z,1.90
2018-07-06T12:47:18.341Z,2.67
2018-07-06T12:49:45.900Z,2.30
2018-07-06T12:52:13.524Z,2.40
2018-07-06T12:54:41.112Z,5.13
2018-07-06T12:57:08.743Z,2.50
2018-07-06T12:59:36.309Z,2.60
2018-07-06T13:02:03.938Z,3.03
2018-07-06T13:04:31.553Z,2.97
2018-07-06T13:06:59.327Z,3.20
2018-07-06T13:09:26.902Z,2.60
2018-07-06T13:11:54.492Z,2.43
2018-07-06T13:14:22.307Z,2.60
2018-07-06T13:16:49.967Z,3.03
2018-07-06T13:19:17.524Z,2.33
2018-07-06T13:21:45.680Z,2.13
2018-07-06T13:24:13.364Z,2.50
2018-07-06T13:26:41.097Z,3.50
2018-07-06T13:29:08.729Z,2.90
2018-07-06T13:31:36.379Z,4.40
2018-07-06T13:34:03.949Z,3.00
2018-07-06T13:36:31.794Z,3.00
2018-07-06T13:38:59.547Z,3.40
2018-07-06T13:41:27.353Z,3.30
2018-07-06T13:43:55.017Z,2.80
2018-07-06T13:46:22.753Z,3.77
2018-07-06T13:48:50.351Z,3.10
2018-07-06T13:51:17.967Z,4.00
2018-07-06T13:53:45.605Z,4.03
2018-07-06T13:56:13.299Z,3.20
2018-07-06T13:58:40.981Z,3.80
2018-07-06T14:01:08.725Z,4.87
2018-07-06T14:03:36.385Z,3.33
2018-07-06T14:06:03.971Z,3.87
2018-07-06T14:08:31.600Z,2.90
2018-07-06T14:10:59.205Z,3.20
2018-07-06T14:13:26.887Z,3.37
2018-07-06T14:15:54.591Z,4.30
2018-07-06T14:18:22.161Z,3.70
2018-07-06T14:20:49.835Z,3.57
2018-07-06T14:23:17.527Z,4.80
2018-07-06T14:25:45.131Z,3.60
2018-07-06T14:28:12.781Z,3.30
2018-07-06T14:30:40.382Z,3.30
2018-07-06T14:33:08.092Z,4.30
2018-07-06T14:35:35.716Z,3.50
2018-07-06T14:38:03.344Z,3.80
2018-07-06T14:40:30.953Z,3.37
2018-07-06T14:42:58.610Z,3.10
2018-07-06T14:45:26.201Z,3.40
2018-07-06T14:47:53.815Z,3.10
2018-07-06T14:50:21.455Z,2.50
2018-07-06T14:52:49.090Z,2.60
2018-07-06T14:55:16.884Z,2.83
2018-07-06T14:57:44.533Z,2.80
2018-07-06T15:00:12.180Z,2.70
2018-07-06T15:02:39.872Z,2.70
2018-07-06T15:05:07.822Z,2.40
2018-07-06T15:07:35.427Z,2.17
2018-07-06T15:10:03.068Z,4.03
2018-07-06T15:12:30.705Z,3.30
2018-07-06T15:14:58.278Z,3.10
2018-07-06T15:17:26.832Z,2.40
2018-07-06T15:19:54.551Z,2.30
2018-07-06T15:22:22.141Z,2.63
2018-07-06T15:24:49.814Z,2.30
2018-07-06T15:27:17.462Z,2.83
2018-07-06T15:29:45.058Z,3.00
2018-07-06T15:32:12.632Z,4.07
2018-07-06T15:34:40.292Z,5.53
2018-07-06T15:37:07.938Z,4.20
2018-07-06T15:39:35.537Z,3.83
2018-07-06T15:42:03.172Z,4.20
2018-07-06T15:44:30.808Z,4.20
2018-07-06T15:46:58.402Z,3.50
2018-07-06T15:49:26.232Z,3.80
2018-07-06T15:51:53.819Z,6.43
2018-07-06T15:54:21.500Z,3.33
2018-07-06T15:56:49.172Z,3.03
2018-07-06T15:59:16.744Z,3.30
2018-07-06T16:01:44.361Z,3.70
2018-07-06T16:04:12.040Z,4.37
2018-07-06T16:06:39.649Z,3.27
2018-07-06T16:09:07.220Z,3.73
2018-07-06T16:11:34.850Z,3.70
2018-07-06T16:14:02.419Z,3.73
2018-07-06T16:16:30.057Z,3.53
2018-07-06T16:18:57.685Z,3.70
2018-07-06T16:21:25.278Z,3.50
2018-07-06T16:23:53.010Z,3.73
2018-07-06T16:26:20.630Z,4.00
2018-07-06T16:28:48.164Z,3.63
2018-07-06T16:31:15.718Z,3.70
2018-07-06T16:33:43.342Z,3.87
2018-07-06T16:36:10.890Z,3.27
2018-07-06T16:38:38.503Z,3.50
2018-07-06T16:41:06.438Z,3.90
2018-07-06T16:43:34.022Z,3.07
2018-07-06T16:46:01.580Z,3.20
2018-07-06T16:48:29.158Z,3.53
2018-07-06T16:50:56.744Z,3.73
2018-07-06T16:53:24.294Z,3.10
2018-07-06T16:55:51.892Z,4.00
2018-07-06T16:58:19.554Z,5.07
2018-07-06T17:00:47.128Z,3.30
2018-07-06T17:03:14.744Z,4.20
2018-07-06T17:05:42.290Z,3.40
2018-07-06T17:08:09.882Z,3.53
2018-07-06T17:10:37.543Z,3.10
2018-07-06T17:13:05.146Z,3.43
2018-07-06T17:15:32.756Z,3.00
2018-07-06T17:18:00.348Z,3.40
2018-07-06T17:20:27.910Z,3.00
2018-07-06T17:22:55.434Z,3.17
2018-07-06T17:25:23.022Z,4.00
2018-07-06T17:27:50.588Z,3.80
2018-07-06T17:30:18.158Z,3.20
2018-07-06T17:32:45.787Z,3.20
2018-07-06T17:35:13.359Z,3.30
2018-07-06T17:37:40.930Z,3.40
2018-07-06T17:40:08.562Z,3.60
2018-07-06T17:42:36.122Z,3.17
2018-07-06T17:45:03.786Z,2.93
2018-07-06T17:47:31.482Z,3.43
2018-07-06T17:49:59.086Z,3.23
2018-07-06T17:52:26.637Z,3.73
2018-07-06T17:54:54.271Z,2.63
2018-07-06T17:57:21.865Z,2.57
2018-07-06T17:59:49.532Z,3.30
2018-07-06T18:02:17.196Z,3.20
2018-07-06T18:04:44.796Z,3.10
2018-07-06T18:07:12.535Z,3.20
2018-07-06T18:09:40.105Z,3.20
2018-07-06T18:12:07.902Z,3.80
2018-07-06T18:14:35.553Z,4.40
2018-07-06T18:17:03.235Z,3.53
2018-07-06T18:19:30.829Z,3.60
2018-07-06T18:21:58.592Z,3.37
2018-07-06T18:24:26.245Z,3.80
2018-07-06T18:26:53.882Z,3.50
2018-07-06T18:29:21.482Z,3.33
2018-07-06T18:31:49.172Z,3.30
2018-07-06T18:34:16.978Z,3.40
2018-07-06T18:36:44.696Z,3.10
2018-07-06T18:39:12.408Z,3.27
2018-07-06T18:41:39.983Z,3.57
2018-07-06T18:44:07.656Z,3.80
2018-07-06T18:46:35.338Z,3.50
2018-07-06T18:49:02.951Z,4.13
2018-07-06T18:51:30.517Z,3.90
2018-07-06T18:53:58.070Z,3.77
2018-07-06T18:56:25.920Z,4.00
2018-07-06T18:58:53.560Z,3.13
2018-07-06T19:01:21.181Z,3.90
2018-07-06T19:03:48.827Z,3.60
2018-07-06T19:06:16.400Z,3.50
2018-07-06T19:08:44.315Z,3.67
2018-07-06T19:11:11.873Z,3.80
2018-07-06T19:13:39.531Z,3.70
2018-07-06T19:16:07.161Z,4.00
2018-07-06T19:18:34.831Z,4.10
2018-07-06T19:21:02.897Z,3.30
2018-07-06T19:23:31.329Z,3.43
2018-07-06T19:25:58.982Z,6.17
2018-07-06T19:28:26.631Z,3.83
2018-07-06T19:30:54.416Z,5.23
2018-07-06T19:33:22.047Z,3.73
2018-07-06T19:35:49.693Z,4.20
2018-07-06T19:38:17.292Z,3.33
2018-07-06T19:40:44.885Z,4.00
2018-07-06T19:43:12.493Z,3.90
2018-07-06T19:45:40.201Z,4.07
2018-07-06T19:48:07.865Z,3.57
2018-07-06T19:50:35.497Z,4.40
2018-07-06T19:53:03.270Z,3.83
2018-07-06T19:55:30.849Z,3.73
2018-07-06T19:57:58.424Z,4.37
2018-07-06T20:00:26.344Z,3.63
2018-07-06T20:02:53.889Z,4.83
2018-07-06T20:05:21.669Z,4.90
2018-07-06T20:07:49.373Z,4.60
2018-07-06T20:10:16.998Z,4.60
2018-07-06T20:12:44.820Z,4.40
2018-07-06T20:15:12.425Z,4.03
2018-07-06T20:17:40.063Z,4.80
2018-07-06T20:20:08.531Z,5.10
2018-07-06T20:22:36.224Z,4.43
2018-07-06T20:25:03.958Z,5.63
2018-07-06T20:27:31.563Z,4.50
2018-07-06T20:29:59.194Z,4.90
2018-07-06T20:32:26.811Z,4.90
2018-07-06T20:34:54.446Z,5.00
2018-07-06T20:37:22.044Z,4.53
2018-07-06T20:39:49.638Z,4.90
2018-07-06T20:42:17.236Z,4.87
2018-07-06T20:44:44.893Z,4.80
2018-07-06T20:47:12.500Z,5.10
2018-07-06T20:49:40.112Z,4.67
2018-07-06T20:52:07.922Z,4.63
2018-07-06T20:54:35.610Z,4.97
2018-07-06T20:57:03.236Z,4.53
2018-07-06T20:59:31.713Z,5.00
2018-07-06T21:01:59.313Z,5.10
2018-07-06T21:04:26.960Z,5.13
2018-07-06T21:06:54.622Z,4.87
2018-07-06T21:09:22.210Z,5.03
2018-07-06T21:11:49.832Z,5.50
2018-07-06T21:14:17.479Z,5.07
2018-07-06T21:16:45.097Z,5.90
2018-07-06T21:19:12.871Z,5.67
2018-07-06T21:21:40.580Z,5.37
2018-07-06T21:24:08.166Z,5.53
2018-07-06T21:26:35.743Z,5.23
2018-07-06T21:29:03.389Z,5.90
2018-07-06T21:31:31.041Z,5.70
2018-07-06T21:33:58.641Z,5.47
2018-07-06T21:36:26.285Z,6.03
2018-07-06T21:38:53.864Z,5.40
2018-07-06T21:41:21.587Z,5.63
2018-07-06T21:43:49.504Z,5.53
2018-07-06T21:46:17.099Z,5.33
2018-07-06T21:48:44.677Z,5.87
2018-07-06T21:51:12.391Z,5.83
2018-07-06T21:53:40.069Z,6.27
2018-07-06T21:56:07.767Z,5.60
2018-07-06T21:58:35.375Z,6.10
2018-07-06T22:01:03.013Z,6.43
2018-07-06T22:03:30.651Z,7.90
2018-07-06T22:05:58.291Z,6.30
2018-07-06T22:08:25.977Z,6.17
2018-07-06T22:10:53.568Z,6.47
2018-07-06T22:13:21.253Z,7.03
2018-07-06T22:15:48.866Z,6.73
2018-07-06T22:18:17.653Z,6.30
2018-07-06T22:20:46.241Z,6.50
2018-07-06T22:23:14.415Z,6.07
2018-07-06T22:25:42.482Z,7.37
2018-07-06T22:28:10.377Z,5.90
2018-07-06T22:30:38.007Z,5.60
2018-07-06T22:33:05.911Z,5.30
2018-07-06T22:35:33.533Z,5.63
2018-07-06T22:38:01.505Z,5.33
2018-07-06T22:40:29.065Z,5.07
2018-07-06T22:42:56.689Z,5.10
2018-07-06T22:45:24.317Z,5.17
2018-07-06T22:47:51.882Z,4.77
2018-07-06T22:50:19.557Z,5.13
2018-07-06T22:52:47.174Z,5.50
2018-07-06T22:55:14.790Z,6.10
2018-07-06T22:57:42.419Z,5.20
2018-07-06T23:00:10.012Z,5.50
2018-07-06T23:02:37.618Z,4.60
2018-07-06T23:05:15.376Z,5.60
2018-07-06T23:07:43.023Z,5.07
2018-07-06T23:10:10.945Z,6.40
2018-07-06T23:12:39.493Z,6.30
2018-07-06T23:15:07.232Z,5.37
2018-07-06T23:17:34.936Z,5.23
2018-07-06T23:20:03.434Z,5.30
2018-07-06T23:22:42.778Z,6.70
2018-07-06T23:25:10.709Z,6.90
2018-07-06T23:27:38.376Z,8.67
2018-07-06T23:30:06.619Z,7.80
2018-07-06T23:32:34.418Z,6.80
2018-07-06T23:35:01.968Z,6.80
2018-07-06T23:37:29.521Z,7.20
2018-07-06T23:39:57.674Z,7.13
2018-07-06T23:42:25.254Z,6.80
2018-07-06T23:44:52.869Z,5.93
2018-07-06T23:47:20.508Z,5.53
2018-07-06T23:49:48.077Z,4.70
2018-07-06T23:52:15.798Z,4.60
2018-07-06T23:54:43.405Z,5.83
2018-07-06T23:57:10.989Z,5.83
2018-07-06T23:59:38.600Z,6.00
